Time;durP1;ratioP1;P1;durP2;ratioP2;P2;SDS_P1;SDS_P2;PMS_P1;PMS_P2;Temp;Humidity;BMP_temperature;BMP_pressure;BME280_temperature;BME280_humidity;BME280_pressure;Samples;Min_cycle;Max_cycle;Signal;HPM_P1;HPM_P2
2021/08/09 00:00:10;;;;;;;5.40;3.30;;;13.10;99.90;;;14.03;83.29;98185.63;5212131;28;20305;-60
2021/08/09 00:02:44;;;;;;;3.65;3.35;;;13.10;99.90;;;13.96;83.48;98184.41;5205931;28;20232;-61
2021/08/09 00:05:18;;;;;;;3.90;3.60;;;13.10;99.90;;;13.96;84.01;98190.47;5207112;28;20993;-61
2021/08/09 00:07:52;;;;;;;3.80;3.30;;;13.10;99.90;;;13.96;83.84;98187.88;5210347;28;20212;-60
2021/08/09 00:10:27;;;;;;;3.53;3.25;;;13.10;99.90;;;13.99;84.08;98189.69;5203196;28;20714;-59
2021/08/09 00:13:00;;;;;;;3.25;2.95;;;13.10;99.90;;;13.98;83.71;98188.81;5210911;28;20244;-59
2021/08/09 00:15:33;;;;;;;3.40;3.13;;;13.00;99.90;;;13.95;82.53;98183.53;5210118;28;20220;-60
2021/08/09 00:18:08;;;;;;;3.83;3.53;;;13.00;99.90;;;13.87;83.24;98178.81;5209966;28;20202;-61
2021/08/09 00:20:41;;;;;;;4.60;3.58;;;12.90;99.90;;;13.79;83.48;98180.13;5213694;28;20573;-61
2021/08/09 00:23:14;;;;;;;3.55;3.33;;;12.90;99.90;;;13.75;83.59;98184.25;5216511;28;20209;-60
2021/08/09 00:25:47;;;;;;;5.88;3.30;;;12.80;99.90;;;13.66;82.68;98178.66;5206805;28;20586;-61
2021/08/09 00:28:20;;;;;;;3.47;3.17;;;12.70;99.90;;;13.58;83.51;98178.25;5210645;28;20580;-61
2021/08/09 00:30:54;;;;;;;3.55;3.20;;;12.60;99.90;;;13.43;84.00;98170.66;5213566;28;20587;-61
2021/08/09 00:33:28;;;;;;;4.55;3.85;;;12.50;99.90;;;13.44;84.95;98172.41;5211624;28;20201;-61
2021/08/09 00:36:01;;;;;;;3.58;3.38;;;12.60;99.90;;;13.45;85.79;98174.22;5214336;28;20207;-61
2021/08/09 00:38:34;;;;;;;4.90;3.60;;;12.60;99.90;;;13.46;85.86;98173.38;5212323;28;20210;-60
2021/08/09 00:41:07;;;;;;;3.55;3.30;;;12.70;99.90;;;13.55;86.06;98164.38;5208702;28;20218;-61
2021/08/09 00:43:41;;;;;;;3.92;3.60;;;12.70;99.90;;;13.56;85.31;98169.59;5210080;28;20233;-61
2021/08/09 00:46:14;;;;;;;4.50;3.58;;;12.70;99.90;;;13.50;84.78;98170.16;5212847;28;20746;-61
2021/08/09 00:48:48;;;;;;;4.00;3.55;;;12.60;99.90;;;13.41;85.06;98167.13;5209528;28;20288;-61
2021/08/09 00:51:22;;;;;;;3.50;3.30;;;12.60;99.90;;;13.44;84.31;98168.97;5214918;28;20224;-60
2021/08/09 00:53:55;;;;;;;3.65;3.35;;;12.60;99.90;;;13.35;85.01;98171.97;5210474;28;20665;-61
2021/08/09 00:56:28;;;;;;;3.58;3.28;;;12.50;99.90;;;13.34;84.32;98167.63;5208228;28;20586;-61
2021/08/09 00:59:01;;;;;;;5.63;3.78;;;12.50;99.90;;;13.29;84.99;98176.78;5210419;28;20684;-60
2021/08/09 01:01:34;;;;;;;4.32;3.92;;;12.50;99.90;;;13.29;85.47;98172.53;5214837;28;20311;-61
2021/08/09 01:04:10;;;;;;;4.28;3.88;;;12.50;99.90;;;13.33;85.32;98171.00;5203273;28;20201;-61
2021/08/09 01:06:44;;;;;;;4.13;3.75;;;12.50;99.90;;;13.32;85.48;98176.06;5214255;28;20293;-61
2021/08/09 01:09:23;;;;;;;4.47;4.07;;;12.50;99.90;;;13.30;85.47;98173.41;5202140;28;20229;-60
2021/08/09 01:12:02;;;;;;;4.30;4.00;;;12.40;99.90;;;13.26;85.71;98171.50;5205601;28;20768;-60
2021/08/09 01:14:51;;;;;;;4.85;4.13;;;12.40;99.90;;;13.18;85.59;98165.06;5207703;28;20194;-61
2021/08/09 01:17:29;;;;;;;4.05;3.75;;;12.40;99.90;;;13.17;86.44;98173.56;5195844;28;20202;-61
2021/08/09 01:20:26;;;;;;;4.45;4.05;;;12.40;99.90;;;13.20;86.74;98166.03;5211933;28;20198;-59
2021/08/09 01:23:16;;;;;;;4.20;3.80;;;12.40;99.90;;;13.17;86.29;98163.28;5207283;28;20244;-60
2021/08/09 01:25:55;;;;;;;3.90;3.60;;;12.40;99.90;;;13.15;86.32;98173.47;5209471;28;20236;-61
2021/08/09 01:28:33;;;;;;;4.10;3.63;;;12.30;99.90;;;13.11;86.76;98170.69;5210915;28;20212;-61
2021/08/09 01:31:08;;;;;;;4.32;3.70;;;12.30;99.90;;;13.15;87.10;98182.84;5208030;28;20239;-61
2021/08/09 01:33:42;;;;;;;3.92;3.50;;;12.30;99.90;;;13.15;86.13;98178.59;5213413;28;20573;-60
2021/08/09 01:36:17;;;;;;;4.15;3.80;;;12.30;99.90;;;13.10;86.36;98174.91;5210535;28;20693;-60
2021/08/09 01:38:51;;;;;;;3.88;3.45;;;12.30;99.90;;;13.02;86.15;98177.09;5207564;28;20200;-60
2021/08/09 01:41:25;;;;;;;5.32;3.65;;;12.20;99.90;;;13.03;87.06;98177.97;5209481;28;20214;-61
2021/08/09 01:44:00;;;;;;;3.80;3.60;;;12.20;99.90;;;12.97;86.97;98175.97;5208108;28;20258;-59
2021/08/09 01:46:34;;;;;;;3.72;3.53;;;12.20;99.90;;;12.93;86.40;98176.59;5208354;28;20671;-61
2021/08/09 01:49:09;;;;;;;3.63;3.33;;;12.10;99.90;;;12.92;86.48;98177.41;5207595;28;20586;-61
2021/08/09 01:51:43;;;;;;;4.10;3.70;;;12.10;99.90;;;12.91;86.79;98178.22;5208646;28;20316;-61
2021/08/09 01:54:17;;;;;;;4.13;3.72;;;12.10;99.90;;;12.91;87.14;98182.47;5209896;28;20200;-60
2021/08/09 01:56:51;;;;;;;4.05;3.65;;;12.10;99.90;;;12.92;86.96;98179.09;5206565;28;20203;-61
2021/08/09 01:59:25;;;;;;;3.95;3.67;;;12.10;99.90;;;12.88;86.99;98178.06;5208518;28;20665;-61
2021/08/09 02:01:59;;;;;;;3.88;3.58;;;12.00;99.90;;;12.82;86.88;98180.28;5213214;22;20232;-56
2021/08/09 02:04:34;;;;;;;3.67;3.45;;;12.00;99.90;;;12.78;88.04;98183.47;5180753;28;20199;-53
2021/08/09 02:07:07;;;;;;;4.10;3.53;;;12.00;99.90;;;12.72;87.57;98175.47;5175868;28;20220;-54
2021/08/09 02:09:40;;;;;;;3.35;3.15;;;12.00;99.90;;;12.72;87.32;98178.03;5179645;28;20220;-53
2021/08/09 02:12:14;;;;;;;3.90;3.70;;;11.90;99.90;;;12.72;87.77;98178.03;5165659;28;20692;-52
2021/08/09 02:14:58;;;;;;;3.85;3.55;;;11.90;99.90;;;12.73;86.94;98177.22;5155099;28;20584;-55
2021/08/09 02:17:40;;;;;;;3.58;3.30;;;11.90;99.90;;;12.74;86.76;98179.00;5155419;28;21631;-57
2021/08/09 02:20:21;;;;;;;4.13;3.67;;;11.90;99.90;;;12.69;87.65;98170.16;5154683;28;20209;-57
2021/08/09 02:23:05;;;;;;;4.65;4.00;;;11.90;99.90;;;12.70;87.23;98167.66;5157409;28;20289;-53
2021/08/09 02:25:40;;;;;;;4.25;3.95;;;11.90;99.90;;;12.66;86.63;98176.00;5159799;28;20581;-54
2021/08/09 02:28:17;;;;;;;3.90;3.58;;;11.80;99.90;;;12.67;86.95;98176.88;5152719;28;20655;-53
2021/08/09 02:30:57;;;;;;;3.70;3.40;;;11.80;99.90;;;12.63;87.01;98176.72;5161571;28;20230;-53
2021/08/09 02:33:31;;;;;;;4.30;3.70;;;11.80;99.90;;;12.61;86.92;98177.44;5159949;28;20607;-53
2021/08/09 02:36:06;;;;;;;4.13;3.80;;;11.80;99.90;;;12.66;86.68;98180.25;5163284;28;20672;-56
2021/08/09 02:38:40;;;;;;;4.10;3.70;;;11.80;99.90;;;12.60;86.91;98184.25;5158487;28;20210;-55
2021/08/09 02:41:14;;;;;;;3.88;3.60;;;11.70;99.90;;;12.61;86.49;98186.00;5157840;28;20225;-51
2021/08/09 02:43:47;;;;;;;3.47;3.17;;;11.70;99.90;;;12.54;86.93;98189.06;5158535;28;20204;-52
2021/08/09 02:46:23;;;;;;;3.83;3.47;;;11.70;99.90;;;12.48;86.86;98193.84;5162037;28;20204;-53
2021/08/09 02:48:56;;;;;;;3.75;3.42;;;11.60;99.90;;;12.48;86.48;98191.28;5157681;28;20195;-52
2021/08/09 02:51:29;;;;;;;4.20;3.80;;;11.60;99.90;;;12.46;86.51;98205.69;5157362;28;20223;-50
2021/08/09 02:54:04;;;;;;;3.90;3.60;;;11.60;99.90;;;12.51;86.30;98205.97;5159193;28;20235;-50
2021/08/09 02:56:38;;;;;;;3.90;3.58;;;11.60;99.90;;;12.48;85.97;98201.53;5158342;28;20203;-55
2021/08/09 02:59:11;;;;;;;3.83;3.40;;;11.60;99.90;;;12.45;86.62;98211.63;5157477;28;20214;-51
2021/08/09 03:01:45;;;;;;;3.75;3.50;;;11.60;99.90;;;12.41;87.50;98209.69;5156889;28;20231;-53
2021/08/09 03:04:22;;;;;;;3.70;3.40;;;11.60;99.90;;;12.40;86.88;98213.94;5155125;28;20227;-53
2021/08/09 03:06:57;;;;;;;4.03;3.40;;;11.50;99.90;;;12.32;86.92;98207.47;5160991;28;20207;-55
2021/08/09 03:09:30;;;;;;;4.55;3.80;;;11.50;99.90;;;12.31;87.00;98209.97;5157462;28;20199;-51
2021/08/09 03:12:06;;;;;;;3.88;3.42;;;11.50;99.90;;;12.24;86.98;98202.72;5151708;28;20231;-54
2021/08/09 03:14:40;;;;;;;4.10;3.75;;;11.40;99.90;;;12.24;86.88;98207.84;5156754;28;20662;-57
2021/08/09 03:17:14;;;;;;;4.13;3.70;;;11.40;99.90;;;12.25;87.62;98215.66;5158803;28;20302;-60
2021/08/09 03:19:47;;;;;;;4.13;3.55;;;11.40;99.90;;;12.22;87.33;98218.03;5154301;28;20203;-54
2021/08/09 03:22:21;;;;;;;4.10;3.80;;;11.50;99.90;;;12.23;87.79;98218.91;5156998;28;20219;-51
2021/08/09 03:24:54;;;;;;;4.00;3.60;;;11.40;99.90;;;12.19;87.78;98215.31;5159270;28;20509;-55
2021/08/09 03:27:27;;;;;;;4.50;3.75;;;11.40;99.90;;;12.21;87.46;98215.38;5155145;28;20272;-50
2021/08/09 03:30:00;;;;;;;3.97;3.60;;;11.40;99.90;;;12.20;87.32;98211.06;5158681;28;20211;-52
2021/08/09 03:32:35;;;;;;;3.88;3.58;;;11.30;99.90;;;12.11;87.02;98209.75;5156721;28;20314;-57
2021/08/09 03:35:09;;;;;;;3.60;3.40;;;11.30;99.90;;;12.10;87.64;98219.88;5156899;28;20194;-54
2021/08/09 03:37:42;;;;;;;3.75;3.45;;;11.20;99.90;;;12.10;87.10;98223.34;5160013;28;20199;-52
2021/08/09 03:40:15;;;;;;;3.92;3.63;;;11.20;99.90;;;12.05;87.51;98214.53;5153608;28;20200;-54
2021/08/09 03:42:54;;;;;;;4.43;3.97;;;11.20;99.90;;;12.03;89.16;98215.22;5155373;28;20227;-52
2021/08/09 03:45:27;;;;;;;4.00;3.60;;;11.30;99.90;;;12.09;88.72;98211.31;5156748;28;20205;-52
2021/08/09 03:48:02;;;;;;;4.22;3.92;;;11.40;99.90;;;12.08;88.61;98218.94;5157556;28;20203;-55
2021/08/09 03:50:35;;;;;;;4.25;3.95;;;11.40;99.90;;;12.12;88.48;98208.06;5157155;28;20195;-51
2021/08/09 03:53:08;;;;;;;3.88;3.65;;;11.40;99.90;;;12.13;88.26;98202.13;5157685;28;20227;-51
2021/08/09 03:55:41;;;;;;;4.00;3.70;;;11.40;99.90;;;12.08;88.06;98204.44;5158259;28;20206;-51
2021/08/09 03:58:14;;;;;;;3.97;3.58;;;11.30;99.90;;;12.04;87.97;98207.59;5157468;28;20236;-52
2021/08/09 04:00:47;;;;;;;4.05;3.83;;;11.20;99.90;;;12.08;87.80;98208.69;5156837;28;20210;-52
2021/08/09 04:03:22;;;;;;;3.72;3.40;;;11.20;99.90;;;12.04;87.71;98209.28;5155654;28;20234;-55
2021/08/09 04:05:55;;;;;;;5.55;3.97;;;11.20;99.90;;;11.91;88.98;98210.28;5157928;28;20199;-52
2021/08/09 04:08:29;;;;;;;4.43;3.83;;;11.20;99.90;;;12.00;87.19;98221.06;5156951;28;20233;-53
2021/08/09 04:11:02;;;;;;;4.03;3.65;;;11.10;99.90;;;11.90;88.11;98224.78;5159549;28;20226;-50
2021/08/09 04:13:35;;;;;;;4.07;3.78;;;11.10;99.90;;;11.91;87.78;98223.09;5155632;28;20203;-54
2021/08/09 04:16:09;;;;;;;4.25;3.42;;;11.10;99.90;;;11.90;88.01;98218.75;5157393;28;20577;-52
2021/08/09 04:18:44;;;;;;;3.95;3.58;;;11.10;99.90;;;11.89;88.16;98209.31;5153192;28;20199;-54
2021/08/09 04:21:17;;;;;;;4.97;3.78;;;11.10;99.90;;;12.00;90.15;98210.81;5157846;28;21186;-52
2021/08/09 04:23:50;;;;;;;4.05;3.72;;;11.20;99.90;;;12.01;88.93;98221.94;5157382;28;20203;-52
2021/08/09 04:26:23;;;;;;;4.50;4.20;;;11.20;99.90;;;11.98;88.21;98209.81;5145953;28;20200;-51
2021/08/09 04:28:56;;;;;;;4.40;4.00;;;11.20;99.90;;;12.00;88.58;98200.56;5154767;28;20342;-55
2021/08/09 04:31:29;;;;;;;4.18;3.88;;;11.20;99.90;;;12.03;88.59;98205.84;5154787;28;20314;-53
2021/08/09 04:34:04;;;;;;;4.30;4.00;;;11.30;99.90;;;12.07;88.57;98207.78;5153928;28;20298;-56
2021/08/09 04:36:37;;;;;;;5.45;4.38;;;11.30;99.90;;;12.08;88.24;98203.56;5155269;28;20203;-56
2021/08/09 04:39:10;;;;;;;4.32;4.03;;;11.40;99.90;;;12.11;88.18;98208.84;5158856;28;20290;-54
2021/08/09 04:41:43;;;;;;;4.68;4.28;;;11.30;99.90;;;12.16;88.45;98213.44;5157403;28;20294;-56
2021/08/09 04:44:36;;;;;;;4.82;3.90;;;11.30;99.90;;;12.17;89.21;98204.94;5150070;28;20212;-51
2021/08/09 04:47:09;;;;;;;4.38;3.97;;;11.40;99.90;;;12.16;88.71;98203.19;5156206;28;20208;-54
2021/08/09 04:49:44;;;;;;;5.07;4.22;;;11.40;99.90;;;12.20;88.78;98209.38;5153727;28;20203;-52
2021/08/09 04:52:17;;;;;;;4.03;3.72;;;11.50;99.90;;;12.26;88.84;98213.97;5160089;28;20344;-57
2021/08/09 04:54:50;;;;;;;4.15;3.75;;;11.40;99.90;;;12.32;87.61;98211.72;5155089;28;20719;-50
2021/08/09 04:57:24;;;;;;;4.10;3.72;;;11.40;99.90;;;12.29;88.77;98204.75;5149942;28;20708;-56
2021/08/09 04:59:57;;;;;;;4.20;3.80;;;11.60;99.90;;;12.36;87.72;98206.88;5152704;28;21735;-55
2021/08/09 05:02:30;;;;;;;4.18;3.75;;;11.50;99.90;;;12.44;87.13;98207.28;5151043;28;20290;-53
2021/08/09 05:05:05;;;;;;;4.18;3.78;;;11.60;99.90;;;12.48;85.91;98196.41;5149181;28;20249;-52
2021/08/09 05:07:38;;;;;;;4.28;3.97;;;11.50;99.90;;;12.39;87.36;98206.16;5156159;28;20584;-53
2021/08/09 05:10:12;;;;;;;4.10;3.78;;;11.50;99.90;;;12.48;86.37;98201.53;5149648;28;20299;-51
2021/08/09 05:12:46;;;;;;;4.38;4.00;;;11.50;99.90;;;12.55;86.20;98208.75;5148760;28;20224;-51
2021/08/09 05:15:20;;;;;;;4.15;3.80;;;11.60;99.90;;;12.69;86.00;98214.63;5150110;28;20581;-55
2021/08/09 05:17:54;;;;;;;4.28;3.97;;;11.80;99.90;;;12.80;85.62;98207.53;5144772;28;20287;-53
2021/08/09 05:20:28;;;;;;;4.18;3.80;;;11.90;99.90;;;12.90;85.38;98211.47;5155864;28;20233;-52
2021/08/09 05:23:02;;;;;;;4.50;3.92;;;12.00;99.90;;;12.88;85.11;98200.22;5145785;28;20216;-55
2021/08/09 05:25:35;;;;;;;5.03;3.85;;;11.90;99.90;;;13.06;85.08;98204.66;5149335;28;20611;-56
2021/08/09 05:28:08;;;;;;;3.83;3.40;;;12.00;99.90;;;13.27;83.05;98197.22;5156408;28;20591;-52
2021/08/09 05:30:42;;;;;;;3.88;3.58;;;12.20;99.90;;;13.32;83.74;98194.91;5150267;28;20559;-56
2021/08/09 05:33:16;;;;;;;3.88;3.33;;;12.30;99.90;;;13.35;82.97;98200.19;5144659;28;20219;-53
2021/08/09 05:35:50;;;;;;;3.58;3.17;;;12.40;99.90;;;13.62;82.84;98203.31;5150653;28;20191;-54
2021/08/09 05:38:23;;;;;;;4.35;3.28;;;12.60;99.90;;;14.17;82.25;98194.88;5154906;28;20195;-52
2021/08/09 05:40:56;;;;;;;3.63;3.33;;;13.20;99.90;;;14.64;78.47;98201.41;5151185;28;20195;-56
2021/08/09 05:43:30;;;;;;;4.05;3.58;;;13.50;99.90;;;15.28;76.46;98204.34;5146021;28;20215;-52
2021/08/09 05:46:03;;;;;;;3.75;3.20;;;14.00;99.90;;;15.85;73.31;98205.91;5144823;28;20227;-52
2021/08/09 05:48:37;;;;;;;4.00;3.60;;;14.50;99.90;;;16.30;70.81;98213.78;5144519;28;20206;-54
2021/08/09 05:51:11;;;;;;;3.55;3.33;;;14.80;99.90;;;16.66;69.05;98207.50;5144390;28;20196;-54
2021/08/09 05:53:45;;;;;;;3.90;3.60;;;15.10;99.90;;;16.81;69.08;98204.66;5153416;28;20686;-53
2021/08/09 05:56:18;;;;;;;3.20;3.00;;;15.30;99.90;;;17.21;67.94;98206.13;5148742;28;20210;-54
2021/08/09 05:58:51;;;;;;;3.58;3.30;;;15.50;99.90;;;17.28;67.68;98200.38;5147344;28;20980;-53
2021/08/09 06:01:24;;;;;;;3.42;3.13;;;15.70;99.90;;;17.82;65.63;98204.84;5160827;28;20227;-53
2021/08/09 06:03:57;;;;;;;3.95;3.40;;;16.00;99.90;;;18.26;63.86;98200.28;5144412;28;20188;-54
2021/08/09 06:06:31;;;;;;;3.33;3.00;;;16.20;99.90;;;18.73;62.63;98195.72;5152085;28;20198;-50
2021/08/09 06:09:04;;;;;;;3.60;3.30;;;16.60;99.90;;;18.51;61.71;98204.50;5152454;28;20191;-56
2021/08/09 06:11:40;;;;;;;3.20;3.00;;;16.50;99.90;;;18.88;60.36;98206.53;5147480;28;20230;-52
2021/08/09 06:14:13;;;;;;;3.13;2.92;;;16.60;99.90;;;19.16;60.57;98204.78;5145819;28;20227;-55
2021/08/09 06:16:46;;;;;;;3.72;2.95;;;16.90;99.90;;;19.70;59.32;98201.97;5151950;28;20631;-53
2021/08/09 06:19:19;;;;;;;3.55;2.90;;;17.30;99.90;;;19.93;57.83;98199.97;5146658;28;20200;-55
2021/08/09 06:21:54;;;;;;;2.85;2.50;;;17.50;99.90;;;20.39;57.28;98202.84;5152779;28;20216;-51
2021/08/09 06:24:27;;;;;;;3.20;2.90;;;17.80;99.90;;;20.44;56.95;98198.63;5161467;28;20223;-51
2021/08/09 06:27:00;;;;;;;3.25;2.97;;;17.90;99.90;;;21.00;56.29;98201.63;5156137;28;20300;-55
2021/08/09 06:29:33;;;;;;;3.90;2.80;;;18.30;99.90;;;21.38;54.86;98199.00;5149764;28;20195;-54
2021/08/09 06:32:07;;;;;;;3.20;2.90;;;18.60;99.90;;;21.46;53.21;98205.25;5154275;28;20215;-57
2021/08/09 06:34:41;;;;;;;2.85;2.45;;;19.00;99.90;;;21.59;51.31;98199.41;5151158;28;20192;-57
2021/08/09 06:37:16;;;;;;;3.38;2.67;;;19.00;99.90;;;21.91;51.68;98201.72;5145724;28;20720;-56
2021/08/09 06:39:49;;;;;;;2.97;2.78;;;19.10;99.90;;;22.16;51.16;98196.94;5149187;28;20659;-52
2021/08/09 06:42:22;;;;;;;4.00;2.63;;;19.40;99.90;;;22.38;50.08;98193.00;5154052;28;20223;-55
2021/08/09 06:44:55;;;;;;;2.95;2.75;;;19.80;99.90;;;22.68;50.21;98198.66;5148108;28;20599;-55
2021/08/09 06:47:28;;;;;;;3.88;2.67;;;20.10;99.90;;;23.09;49.00;98189.66;5149653;28;20571;-56
2021/08/09 06:50:01;;;;;;;3.10;2.80;;;20.30;99.90;;;23.30;48.05;98187.34;5153808;28;20313;-54
2021/08/09 06:52:36;;;;;;;11.23;3.15;;;20.70;99.90;;;23.60;47.90;98178.94;5151642;28;20220;-50
2021/08/09 06:55:10;;;;;;;3.78;2.60;;;20.80;99.90;;;23.58;47.58;98187.66;5155738;28;20201;-55
2021/08/09 06:57:43;;;;;;;3.50;2.58;;;21.10;99.90;;;23.82;47.43;98190.53;5154866;28;20202;-54
2021/08/09 07:00:16;;;;;;;2.40;2.22;;;21.30;99.90;;;23.96;46.45;98188.06;5146751;28;20214;-57
2021/08/09 07:02:49;;;;;;;4.72;2.10;;;21.20;99.90;;;24.14;47.20;98183.84;5152641;28;20285;-55
2021/08/09 07:05:22;;;;;;;2.53;2.15;;;21.50;99.90;;;23.94;45.75;98175.84;5145392;28;20282;-57
2021/08/09 07:07:57;;;;;;;2.80;2.40;;;21.50;99.30;;;24.02;46.24;98177.66;5143868;28;20589;-56
2021/08/09 07:10:30;;;;;;;3.50;2.30;;;21.60;99.70;;;23.37;47.61;98186.53;5156412;28;20202;-54
2021/08/09 07:13:03;;;;;;;2.65;2.40;;;21.60;99.20;;;23.67;47.72;98179.03;5149319;28;20223;-56
2021/08/09 07:15:36;;;;;;;3.47;2.17;;;21.70;99.30;;;24.13;46.71;98171.66;5146820;28;20218;-52
2021/08/09 07:18:09;;;;;;;3.42;2.30;;;21.70;99.30;;;24.45;46.38;98167.56;5156195;28;20199;-56
2021/08/09 07:20:42;;;;;;;4.00;2.50;;;21.80;99.30;;;24.32;46.85;98170.91;5155875;28;20202;-55
2021/08/09 07:23:16;;;;;;;2.50;1.92;;;22.10;99.60;;;24.70;46.57;98172.97;5155967;28;20223;-53
2021/08/09 07:25:49;;;;;;;2.17;2.08;;;22.30;99.60;;;25.24;45.73;98176.75;5147859;28;20201;-57
2021/08/09 07:28:23;;;;;;;2.67;2.15;;;22.60;98.80;;;25.25;46.08;98172.38;5162322;28;20234;-57
2021/08/09 07:30:56;;;;;;;2.25;1.80;;;22.70;99.50;;;25.83;44.80;98177.78;5147293;28;20300;-52
2021/08/09 07:33:29;;;;;;;3.03;2.13;;;23.00;98.80;;;26.51;43.00;98181.31;5153335;28;20739;-54
2021/08/09 07:36:05;;;;;;;2.65;2.28;;;23.20;98.20;;;26.84;41.91;98175.16;5156636;28;20202;-59
2021/08/09 07:38:40;;;;;;;3.63;2.10;;;23.50;97.40;;;27.23;41.31;98180.28;5151418;28;20195;-57
2021/08/09 07:41:15;;;;;;;2.50;1.77;;;23.80;97.10;;;27.45;41.48;98186.31;5152496;28;20236;-58
2021/08/09 07:43:48;;;;;;;2.72;1.98;;;24.00;97.50;;;28.10;40.44;98174.53;5153650;28;20692;-54
2021/08/09 07:46:24;;;;;;;1.98;1.88;;;24.50;96.60;;;28.42;39.49;98174.28;5148326;28;20203;-55
2021/08/09 07:48:57;;;;;;;2.25;2.05;;;24.60;96.00;;;28.76;37.93;98171.34;5153303;28;20209;-55
2021/08/09 07:51:30;;;;;;;3.88;1.77;;;24.90;95.40;;;29.11;37.74;98170.09;5156152;28;20230;-54
2021/08/09 07:54:05;;;;;;;2.30;2.08;;;25.10;95.20;;;29.38;37.44;98174.13;5154662;28;20224;-58
2021/08/09 07:56:38;;;;;;;2.40;1.73;;;25.30;94.90;;;29.60;36.93;98175.56;5146549;28;20733;-55
2021/08/09 07:59:11;;;;;;;2.22;2.03;;;25.40;94.80;;;29.62;36.16;98173.81;5151591;28;20207;-53
2021/08/09 08:01:44;;;;;;;1.65;1.48;;;25.40;94.40;;;29.07;35.66;98179.75;5166334;23;20237;-63
2021/08/09 08:04:17;;;;;;;2.28;1.60;;;25.40;92.90;;;28.60;36.08;98167.97;5165517;28;20603;-63
2021/08/09 08:06:50;;;;;;;1.33;1.23;;;25.40;91.60;;;28.27;37.11;98170.03;5166267;28;20305;-63
2021/08/09 08:09:25;;;;;;;1.60;1.50;;;25.30;92.30;;;28.24;37.87;98180.56;5166037;28;20197;-63
2021/08/09 08:11:59;;;;;;;2.13;1.75;;;25.60;92.10;;;28.19;37.05;98192.88;5164184;28;20789;-63
2021/08/09 08:14:32;;;;;;;3.40;1.90;;;25.70;91.90;;;28.11;37.22;98186.78;5138293;28;20262;-63
2021/08/09 08:17:05;;;;;;;2.33;1.52;;;25.30;91.80;;;27.99;36.94;98189.53;5128675;28;20299;-63
2021/08/09 08:19:38;;;;;;;1.80;1.60;;;25.40;91.50;;;27.91;36.74;98194.81;5129564;28;20287;-62
2021/08/09 08:22:12;;;;;;;2.78;1.30;;;25.40;91.30;;;27.99;37.15;98189.53;5129414;28;20223;-63
2021/08/09 08:24:46;;;;;;;3.40;1.60;;;25.80;90.90;;;28.05;36.10;98192.97;5130866;28;20283;-63
2021/08/09 08:27:19;;;;;;;2.13;1.40;;;26.00;88.90;;;27.80;36.69;98194.88;5125847;28;20711;-64
2021/08/09 08:29:52;;;;;;;1.92;1.30;;;25.90;89.90;;;27.45;37.27;98195.06;5127083;28;20200;-63
2021/08/09 08:32:25;;;;;;;2.63;1.30;;;25.70;90.30;;;27.56;38.07;98187.13;5125890;28;20223;-64
2021/08/09 08:34:59;;;;;;;3.13;1.40;;;25.70;90.30;;;27.54;37.41;98175.75;5125956;28;20328;-64
2021/08/09 08:37:32;;;;;;;1.75;1.35;;;25.80;89.60;;;27.47;37.23;98176.66;5130408;28;20572;-65
2021/08/09 08:40:08;;;;;;;2.60;1.55;;;25.90;89.30;;;27.25;37.58;98187.28;5130494;28;20199;-65
2021/08/09 08:42:41;;;;;;;2.58;1.40;;;25.60;90.00;;;27.25;38.15;98187.28;5139667;28;20231;-64
2021/08/09 08:45:19;;;;;;;1.40;1.30;;;25.80;90.50;;;27.40;37.28;98183.72;5126313;28;20193;-64
2021/08/09 08:47:52;;;;;;;2.28;1.67;;;25.70;89.80;;;27.40;37.32;98178.44;5126463;28;20698;-65
2021/08/09 08:50:25;;;;;;;1.88;1.50;;;25.70;88.90;;;27.22;37.43;98182.03;5133196;28;20200;-64
2021/08/09 08:52:58;;;;;;;1.38;1.27;;;25.80;89.40;;;27.16;37.11;98179.44;5133215;28;20216;-65
2021/08/09 08:55:33;;;;;;;1.50;1.40;;;25.90;87.70;;;26.99;37.69;98176.00;5126646;28;20232;-63
2021/08/09 08:58:06;;;;;;;2.30;1.40;;;25.70;89.20;;;27.22;37.96;98175.94;5129477;28;20615;-64
2021/08/09 09:00:41;;;;;;;1.58;1.48;;;25.80;89.10;;;27.21;37.21;98176.78;5129807;28;20286;-65
2021/08/09 09:03:19;;;;;;;2.60;1.40;;;25.80;87.30;;;27.04;37.25;98175.09;5128171;28;20235;-64
2021/08/09 09:06:04;;;;;;;1.20;1.10;;;25.60;87.10;;;26.91;36.22;98169.00;5130331;28;20629;-63
2021/08/09 09:08:42;;;;;;;2.15;1.17;;;25.60;85.50;;;27.06;35.86;98173.31;5126906;28;20243;-64
2021/08/09 09:11:38;;;;;;;1.95;1.40;;;25.60;85.80;;;27.15;36.73;98177.66;5124740;28;20234;-64
2021/08/09 09:14:11;;;;;;;1.45;1.35;;;25.80;87.00;;;27.26;34.77;98170.63;5140321;28;20673;-64
2021/08/09 09:16:46;;;;;;;1.92;1.10;;;25.80;82.70;;;27.34;34.81;98168.84;5129460;28;20286;-64
2021/08/09 09:19:32;;;;;;;1.40;1.30;;;26.10;82.90;;;27.44;35.17;98168.78;5128645;28;20200;-64
2021/08/09 09:22:08;;;;;;;2.40;1.40;;;26.20;82.90;;;27.38;34.18;98174.94;5125420;28;20639;-64
2021/08/09 09:24:51;;;;;;;1.60;1.23;;;26.20;81.80;;;27.51;34.03;98181.03;5125015;28;20204;-63
2021/08/09 09:27:30;;;;;;;1.63;1.50;;;26.20;80.60;;;27.57;34.73;98178.38;5129967;28;20211;-64
2021/08/09 09:30:29;;;;;;;1.35;1.20;;;26.30;82.30;;;27.51;34.22;98166.13;5131125;28;20581;-63
2021/08/09 09:33:04;;;;;;;1.40;1.30;;;26.00;82.60;;;27.43;34.82;98167.94;5134869;28;20662;-64
2021/08/09 09:35:38;;;;;;;1.95;1.60;;;26.10;82.60;;;27.42;35.14;98171.44;5126226;28;20716;-64
2021/08/09 09:38:11;;;;;;;2.03;1.30;;;26.20;84.00;;;27.33;34.59;98172.38;5128255;28;20218;-63
2021/08/09 09:40:44;;;;;;;2.00;1.20;;;26.20;81.60;;;27.48;34.20;98170.53;5126426;28;20548;-64
2021/08/09 09:43:22;;;;;;;1.60;1.45;;;26.20;80.70;;;27.46;34.32;98175.78;5125774;28;20223;-64
2021/08/09 09:45:56;;;;;;;3.25;2.70;;;26.30;81.90;;;27.54;34.29;98178.38;5127399;28;20188;-63
2021/08/09 09:48:34;;;;;;;1.83;1.60;;;26.30;80.60;;;27.60;33.78;98179.22;5132435;28;20561;-64
2021/08/09 09:51:13;;;;;;;2.70;1.40;;;26.40;79.70;;;27.48;32.62;98178.44;5133545;28;20203;-65
2021/08/09 09:53:49;;;;;;;1.77;1.20;;;26.10;78.70;;;27.59;34.32;98174.00;5132652;28;20220;-63
2021/08/09 09:56:22;;;;;;;2.83;1.30;;;26.10;80.80;;;27.61;33.42;98180.06;5135239;28;20282;-62
2021/08/09 09:58:58;;;;;;;1.75;1.20;;;26.00;79.90;;;27.66;34.86;98180.94;5128370;28;20306;-63
2021/08/09 10:01:31;;;;;;;2.20;1.30;;;26.20;82.40;;;27.62;34.18;98176.59;5126932;28;20213;-62
2021/08/09 10:04:05;;;;;;;1.42;1.20;;;26.40;81.20;;;27.60;35.77;98170.47;5130750;28;20224;-61
2021/08/09 10:06:40;;;;;;;1.92;1.40;;;26.50;83.00;;;27.79;34.81;98172.13;5135853;28;20290;-63
2021/08/09 10:09:14;;;;;;;2.00;1.50;;;26.50;81.80;;;27.74;34.48;98173.88;5129458;28;20204;-62
2021/08/09 10:11:48;;;;;;;1.98;1.70;;;26.40;81.80;;;27.58;36.14;98167.84;5125095;28;20726;-61
2021/08/09 10:14:22;;;;;;;1.77;1.50;;;26.40;83.80;;;27.37;36.29;98178.47;5131972;28;20762;-61
2021/08/09 10:16:55;;;;;;;2.10;1.30;;;26.30;83.90;;;27.44;36.10;98171.44;5140112;28;20335;-62
2021/08/09 10:19:28;;;;;;;2.58;1.52;;;26.10;83.50;;;27.45;35.55;98175.81;5124449;28;20588;-61
2021/08/09 10:22:02;;;;;;;1.48;1.38;;;26.40;82.40;;;27.35;35.10;98181.09;5128477;28;20232;-62
2021/08/09 10:24:39;;;;;;;1.90;1.40;;;26.40;80.30;;;27.09;34.72;98182.94;5125542;28;20547;-61
2021/08/09 10:27:12;;;;;;;1.45;1.35;;;25.90;80.10;;;27.06;35.46;98188.19;5142430;28;20289;-62
2021/08/09 10:30:15;;;;;;;1.98;1.67;;;25.80;82.40;;;27.04;35.31;98185.59;5136067;28;20460;-61
2021/08/09 10:32:52;;;;;;;1.88;1.52;;;25.80;82.10;;;27.03;36.19;98175.94;5126280;28;20258;-61
2021/08/09 10:36:02;;;;;;;1.63;1.40;;;25.90;82.40;;;27.03;35.86;98172.47;5125059;28;20231;-61
2021/08/09 10:38:43;;;;;;;2.25;1.63;;;25.90;82.20;;;27.04;36.12;98179.44;5122337;28;20236;-63
2021/08/09 10:41:38;;;;;;;2.30;1.60;;;25.90;82.80;;;27.00;34.72;98169.84;5123044;28;20287;-63
2021/08/09 10:44:49;;;;;;;2.17;1.63;;;25.90;81.00;;;26.90;35.10;98172.50;5127207;28;20214;-59
2021/08/09 10:47:55;;;;;;;2.10;1.50;;;25.90;81.50;;;26.94;37.41;98174.22;5121532;28;20196;-61
2021/08/09 10:50:53;;;;;;;1.92;1.48;;;26.10;84.70;;;27.05;35.44;98176.81;5129106;28;20294;-61
2021/08/09 10:53:47;;;;;;;2.08;1.30;;;26.20;81.10;;;26.95;35.84;98175.97;5136443;28;20783;-61